Time;durP1;ratioP1;P1;durP2;ratioP2;P2;SDS_P1;SDS_P2;PMS_P1;PMS_P2;Temp;Humidity;BMP_temperature;BMP_pressure;BME280_temperature;BME280_humidity;BME280_pressure;Samples;Min_cycle;Max_cycle;Signal;HPM_P1;HPM_P2
2023/07/20 00:00:37;;;;;;;;;;;17.90;99.90;;;;;;2077117;28;20289;-68
2023/07/20 00:01:38;;;;;;;;;;;17.90;99.90;;;;;;2070520;28;19914;-67
2023/07/20 00:02:38;;;;;;;;;;;17.80;99.90;;;;;;2075207;28;19928;-66
2023/07/20 00:03:39;;;;;;;;;;;17.80;99.90;;;;;;2077966;28;20154;-67
2023/07/20 00:04:40;;;;;;;;;;;17.70;99.90;;;;;;2077086;28;19917;-67
2023/07/20 00:05:40;;;;;;;;;;;17.70;99.90;;;;;;2075090;28;20303;-67
2023/07/20 00:06:41;;;;;;;;;;;17.70;99.90;;;;;;2065108;28;19921;-69
2023/07/20 00:07:41;;;;;;;;;;;17.60;99.90;;;;;;2074690;28;20019;-67
2023/07/20 00:08:42;;;;;;;;;;;17.60;99.90;;;;;;2072241;28;19967;-67
2023/07/20 00:09:42;;;;;;;;;;;17.60;99.90;;;;;;2077526;28;20022;-67
2023/07/20 00:10:43;;;;;;;;;;;17.60;99.90;;;;;;2075779;28;20407;-67
2023/07/20 00:11:50;;;;;;;;;;;17.60;99.90;;;;;;2075212;28;19932;-67
2023/07/20 00:12:51;;;;;;;;;;;17.60;99.90;;;;;;2075109;28;19917;-68
2023/07/20 00:13:51;;;;;;;;;;;17.60;99.90;;;;;;2070977;28;20008;-67
2023/07/20 00:14:53;;;;;;;;;;;17.60;99.90;;;;;;2075193;28;19913;-68
2023/07/20 00:15:53;;;;;;;;;;;17.60;99.90;;;;;;2075543;28;19924;-67
2023/07/20 00:16:58;;;;;;;;;;;17.50;99.90;;;;;;2075783;28;19983;-67
2023/07/20 00:17:58;;;;;;;;;;;17.60;99.90;;;;;;2075853;28;19924;-67
2023/07/20 00:18:59;;;;;;;;;;;17.60;99.90;;;;;;2076040;28;20384;-72
2023/07/20 00:19:59;;;;;;;;;;;17.60;99.90;;;;;;2079021;28;19929;-72
2023/07/20 00:21:00;;;;;;;;;;;17.60;99.90;;;;;;2073507;28;20837;-64
2023/07/20 00:22:01;;;;;;;;;;;17.50;99.90;;;;;;2073589;28;20010;-69
2023/07/20 00:23:02;;;;;;;;;;;17.50;99.90;;;;;;2074819;28;20420;-72
2023/07/20 00:24:03;;;;;;;;;;;17.50;99.90;;;;;;2077074;28;19920;-73
2023/07/20 00:25:03;;;;;;;;;;;17.50;99.90;;;;;;2074817;28;20018;-73
2023/07/20 00:26:04;;;;;;;;;;;17.50;99.90;;;;;;2074968;28;19976;-72
2023/07/20 00:27:04;;;;;;;;;;;17.50;99.90;;;;;;2066958;28;19918;-73
2023/07/20 00:28:05;;;;;;;;;;;17.40;99.90;;;;;;2068372;28;20189;-72
2023/07/20 00:29:05;;;;;;;;;;;17.50;99.90;;;;;;2075139;28;19988;-72
2023/07/20 00:30:06;;;;;;;;;;;17.40;99.90;;;;;;2086394;28;19917;-72
2023/07/20 00:31:07;;;;;;;;;;;17.40;99.90;;;;;;2078346;28;20008;-74
2023/07/20 00:32:07;;;;;;;;;;;17.40;99.90;;;;;;2075666;28;19928;-72
2023/07/20 00:33:11;;;;;;;;;;;17.40;99.90;;;;;;2078241;28;19921;-73
2023/07/20 00:34:12;;;;;;;;;;;17.40;99.90;;;;;;2073236;28;19918;-73
2023/07/20 00:35:14;;;;;;;;;;;17.40;99.90;;;;;;2083406;28;19955;-73
2023/07/20 00:36:15;;;;;;;;;;;17.40;99.90;;;;;;2073728;28;20013;-74
2023/07/20 00:37:16;;;;;;;;;;;17.40;99.90;;;;;;2074985;28;19925;-73
2023/07/20 00:38:17;;;;;;;;;;;17.40;99.90;;;;;;2075319;28;20008;-72
2023/07/20 00:39:18;;;;;;;;;;;17.40;99.90;;;;;;2076829;28;19913;-73
2023/07/20 00:40:19;;;;;;;;;;;17.40;99.90;;;;;;2075117;28;19924;-72
2023/07/20 00:41:19;;;;;;;;;;;17.40;99.90;;;;;;2076523;28;19917;-72
2023/07/20 00:42:20;;;;;;;;;;;17.40;99.90;;;;;;2074371;28;20044;-72
2023/07/20 00:43:20;;;;;;;;;;;17.40;99.90;;;;;;2080260;28;20315;-72
2023/07/20 00:44:21;;;;;;;;;;;17.40;99.90;;;;;;2079735;28;20402;-73
2023/07/20 00:45:21;;;;;;;;;;;17.50;99.90;;;;;;2071090;28;19917;-72
2023/07/20 00:46:23;;;;;;;;;;;17.50;99.90;;;;;;2066839;28;20100;-73
2023/07/20 00:47:24;;;;;;;;;;;17.50;99.90;;;;;;2074565;28;19913;-72
2023/07/20 00:48:24;;;;;;;;;;;17.50;99.90;;;;;;2073555;28;19921;-73
2023/07/20 00:49:25;;;;;;;;;;;17.50;99.90;;;;;;2074773;28;19917;-73
2023/07/20 00:50:26;;;;;;;;;;;17.50;99.90;;;;;;2074411;28;19948;-73
2023/07/20 00:51:27;;;;;;;;;;;17.50;99.90;;;;;;2068734;28;19918;-73
2023/07/20 00:52:28;;;;;;;;;;;17.50;99.90;;;;;;2065031;28;19918;-73
2023/07/20 00:53:28;;;;;;;;;;;17.50;99.90;;;;;;2055812;28;19913;-72
2023/07/20 00:54:29;;;;;;;;;;;17.50;99.90;;;;;;2073757;28;19917;-72
2023/07/20 00:55:30;;;;;;;;;;;17.50;99.90;;;;;;2076461;28;19924;-72
2023/07/20 00:56:31;;;;;;;;;;;17.50;99.90;;;;;;2066521;28;20471;-72
2023/07/20 00:57:31;;;;;;;;;;;17.50;99.90;;;;;;2064810;28;19920;-72
2023/07/20 00:58:33;;;;;;;;;;;17.50;99.90;;;;;;2066735;28;20021;-71
2023/07/20 00:59:35;;;;;;;;;;;17.50;99.90;;;;;;2069226;28;20377;-72
2023/07/20 01:00:36;;;;;;;;;;;17.50;99.90;;;;;;2074720;28;19917;-73
2023/07/20 01:01:37;;;;;;;;;;;17.50;99.90;;;;;;2075647;28;19917;-73
2023/07/20 01:02:37;;;;;;;;;;;17.40;99.90;;;;;;2075316;28;19959;-73
2023/07/20 01:03:38;;;;;;;;;;;17.40;99.90;;;;;;2074825;28;19936;-72
2023/07/20 01:04:40;;;;;;;;;;;17.40;99.90;;;;;;2074868;28;20419;-73
2023/07/20 01:05:45;;;;;;;;;;;17.40;99.90;;;;;;2077470;28;19917;-73
2023/07/20 01:06:48;;;;;;;;;;;17.40;99.90;;;;;;2073048;28;19971;-73
2023/07/20 01:07:53;;;;;;;;;;;17.50;99.90;;;;;;2075264;28;19971;-73
2023/07/20 01:08:55;;;;;;;;;;;17.50;99.90;;;;;;2070877;28;20011;-73
2023/07/20 01:09:58;;;;;;;;;;;17.50;99.90;;;;;;2074927;28;19924;-73
2023/07/20 01:11:06;;;;;;;;;;;17.50;99.90;;;;;;2070520;28;19928;-73
2023/07/20 01:12:15;;;;;;;;;;;17.50;99.90;;;;;;2063179;28;19924;-73
2023/07/20 01:13:17;;;;;;;;;;;17.50;99.90;;;;;;2074689;28;19924;-72
2023/07/20 01:14:18;;;;;;;;;;;17.50;99.90;;;;;;2074422;28;19963;-73
2023/07/20 01:15:19;;;;;;;;;;;17.50;99.90;;;;;;2066671;28;20396;-73
2023/07/20 01:16:19;;;;;;;;;;;17.50;99.90;;;;;;2075303;28;20499;-73
2023/07/20 01:17:20;;;;;;;;;;;17.50;99.90;;;;;;2074444;28;20032;-73
2023/07/20 01:18:20;;;;;;;;;;;17.50;99.90;;;;;;2064815;28;19925;-73
2023/07/20 01:19:21;;;;;;;;;;;17.50;99.90;;;;;;2066448;28;19917;-72
2023/07/20 01:20:22;;;;;;;;;;;17.50;99.90;;;;;;2059609;28;19925;-73
2023/07/20 01:21:50;;;;;;;;;;;17.60;99.90;;;;;;2061778;28;20430;-73
2023/07/20 01:22:59;;;;;;;;;;;17.60;99.90;;;;;;2050779;28;19917;-70
2023/07/20 01:24:05;;;;;;;;;;;17.60;99.90;;;;;;2058346;28;19914;-73
2023/07/20 01:25:24;;;;;;;;;;;17.60;99.90;;;;;;2065621;28;20393;-74
2023/07/20 01:26:43;;;;;;;;;;;17.50;99.90;;;;;;2063709;28;19924;-75
2023/07/20 01:27:54;;;;;;;;;;;17.50;99.90;;;;;;2071705;28;19917;-73
2023/07/20 01:29:08;;;;;;;;;;;17.50;99.90;;;;;;2079207;28;19917;-74
2023/07/20 01:30:27;;;;;;;;;;;17.50;99.90;;;;;;2072231;28;20180;-70
2023/07/20 01:31:30;;;;;;;;;;;17.50;99.90;;;;;;2073475;28;19974;-73
2023/07/20 01:32:31;;;;;;;;;;;17.40;99.90;;;;;;2074459;28;19921;-72
2023/07/20 01:33:32;;;;;;;;;;;17.40;99.90;;;;;;2074619;28;20009;-72
2023/07/20 01:34:35;;;;;;;;;;;17.40;99.90;;;;;;2076817;28;19924;-72
2023/07/20 01:35:38;;;;;;;;;;;17.30;99.90;;;;;;2064165;28;19914;-72
2023/07/20 01:36:39;;;;;;;;;;;17.30;99.90;;;;;;2072120;28;20308;-73
2023/07/20 01:37:42;;;;;;;;;;;17.30;99.90;;;;;;2071896;28;19917;-72
2023/07/20 01:38:42;;;;;;;;;;;17.30;99.90;;;;;;2077747;28;19913;-73
2023/07/20 01:39:43;;;;;;;;;;;17.20;99.90;;;;;;2080128;28;19913;-74
2023/07/20 01:40:44;;;;;;;;;;;17.20;99.90;;;;;;2074734;28;20781;-73
2023/07/20 01:41:45;;;;;;;;;;;17.20;99.90;;;;;;2075166;28;20292;-74
2023/07/20 01:42:46;;;;;;;;;;;17.20;99.90;;;;;;2075631;28;19913;-74
2023/07/20 01:43:47;;;;;;;;;;;17.20;99.90;;;;;;2075150;28;19944;-72
2023/07/20 01:44:47;;;;;;;;;;;17.20;99.90;;;;;;2078663;28;19917;-74
2023/07/20 01:45:48;;;;;;;;;;;17.20;99.90;;;;;;2076594;28;19924;-73
2023/07/20 01:46:49;;;;;;;;;;;17.20;99.90;;;;;;2076241;28;19917;-73
2023/07/20 01:47:49;;;;;;;;;;;17.20;99.90;;;;;;2078005;28;20005;-74
2023/07/20 01:48:51;;;;;;;;;;;17.20;99.90;;;;;;2075511;28;20434;-74
2023/07/20 01:49:51;;;;;;;;;;;17.20;99.90;;;;;;2076201;28;19920;-73
2023/07/20 01:50:52;;;;;;;;;;;17.20;99.90;;;;;;2076579;28;19925;-73
2023/07/20 01:51:52;;;;;;;;;;;17.20;99.90;;;;;;2076010;28;19917;-74
2023/07/20 01:52:53;;;;;;;;;;;17.20;99.90;;;;;;2076480;28;19909;-73
2023/07/20 01:53:53;;;;;;;;;;;17.20;99.90;;;;;;2078203;28;19913;-73
2023/07/20 01:54:54;;;;;;;;;;;17.20;99.90;;;;;;2068331;28;19952;-73
2023/07/20 01:55:54;;;;;;;;;;;17.20;99.90;;;;;;2075396;28;20000;-73
2023/07/20 01:56:55;;;;;;;;;;;17.10;99.90;;;;;;2076251;28;20435;-73
2023/07/20 01:57:56;;;;;;;;;;;17.20;99.90;;;;;;2068235;28;20581;-72
2023/07/20 01:58:57;;;;;;;;;;;17.10;99.90;;;;;;2078282;28;19917;-73
2023/07/20 01:59:57;;;;;;;;;;;17.10;99.90;;;;;;2079506;28;19914;-74
2023/07/20 02:00:58;;;;;;;;;;;17.00;99.90;;;;;;2079538;28;19913;-73
2023/07/20 02:01:59;;;;;;;;;;;17.00;99.90;;;;;;2074294;28;19985;-73
2023/07/20 02:02:59;;;;;;;;;;;17.00;99.90;;;;;;2081033;28;19939;-73
2023/07/20 02:04:00;;;;;;;;;;;17.10;99.90;;;;;;2076552;28;19925;-73
2023/07/20 02:05:00;;;;;;;;;;;17.00;99.90;;;;;;2076077;28;19928;-73
2023/07/20 02:06:01;;;;;;;;;;;17.00;99.90;;;;;;2077888;28;19913;-73
2023/07/20 02:07:01;;;;;;;;;;;17.00;99.90;;;;;;2076800;28;19917;-73
2023/07/20 02:08:02;;;;;;;;;;;17.00;99.90;;;;;;2076520;28;20364;-73
2023/07/20 02:09:02;;;;;;;;;;;17.00;99.90;;;;;;2073674;28;20174;-74
2023/07/20 02:10:06;;;;;;;;;;;17.00;99.90;;;;;;2076931;28;19948;-72
2023/07/20 02:11:06;;;;;;;;;;;17.00;99.90;;;;;;2082230;28;20400;-73
2023/07/20 02:12:07;;;;;;;;;;;17.00;99.90;;;;;;2076717;28;19917;-74
2023/07/20 02:13:07;;;;;;;;;;;17.00;99.90;;;;;;2078336;28;19913;-74
2023/07/20 02:14:08;;;;;;;;;;;17.00;99.90;;;;;;2079058;28;20503;-73
2023/07/20 02:15:09;;;;;;;;;;;17.00;99.90;;;;;;2077754;28;19932;-73
2023/07/20 02:16:11;;;;;;;;;;;17.00;99.90;;;;;;2076080;28;19925;-73
2023/07/20 02:17:11;;;;;;;;;;;17.00;99.90;;;;;;2075939;28;20431;-73
2023/07/20 02:18:14;;;;;;;;;;;17.00;99.90;;;;;;2066094;28;23162;-73
2023/07/20 02:19:14;;;;;;;;;;;17.00;99.90;;;;;;2075638;28;19953;-73
2023/07/20 02:20:15;;;;;;;;;;;17.10;99.90;;;;;;2078462;28;19944;-73
2023/07/20 02:21:15;;;;;;;;;;;17.10;99.90;;;;;;2075883;28;20019;-73
2023/07/20 02:22:16;;;;;;;;;;;17.10;99.90;;;;;;2075891;28;20070;-73
2023/07/20 02:23:17;;;;;;;;;;;17.10;99.90;;;;;;2076638;28;19917;-74
2023/07/20 02:24:18;;;;;;;;;;;17.10;99.90;;;;;;2077286;28;19917;-73
2023/07/20 02:25:18;;;;;;;;;;;17.10;99.90;;;;;;2075935;28;20407;-73
2023/07/20 02:26:19;;;;;;;;;;;17.10;99.90;;;;;;2078255;28;20293;-74
2023/07/20 02:27:19;;;;;;;;;;;17.10;99.90;;;;;;2072334;28;20455;-74
2023/07/20 02:28:20;;;;;;;;;;;17.20;99.90;;;;;;2075916;28;19921;-73
2023/07/20 02:29:20;;;;;;;;;;;17.20;99.90;;;;;;2090466;28;19924;-73
2023/07/20 02:30:21;;;;;;;;;;;17.20;99.90;;;;;;2077528;28;20485;-73
2023/07/20 02:31:22;;;;;;;;;;;17.20;99.90;;;;;;2067526;28;20362;-73
2023/07/20 02:32:22;;;;;;;;;;;17.20;99.90;;;;;;2065491;28;19925;-74
2023/07/20 02:33:22;;;;;;;;;;;17.20;99.90;;;;;;2075295;28;20381;-74
2023/07/20 02:34:23;;;;;;;;;;;17.20;99.90;;;;;;2069290;28;20381;-74
2023/07/20 02:35:24;;;;;;;;;;;17.20;99.90;;;;;;2075926;28;20012;-73
2023/07/20 02:36:24;;;;;;;;;;;17.20;99.90;;;;;;2075819;28;19952;-73
2023/07/20 02:37:25;;;;;;;;;;;17.20;99.90;;;;;;2076188;28;19918;-74
2023/07/20 02:38:25;;;;;;;;;;;17.20;99.90;;;;;;2077725;28;20392;-74
2023/07/20 02:39:29;;;;;;;;;;;17.20;99.90;;;;;;2075787;28;19924;-73
2023/07/20 02:40:29;;;;;;;;;;;17.20;99.90;;;;;;2075854;28;19941;-73
2023/07/20 02:41:30;;;;;;;;;;;17.10;99.90;;;;;;2067571;28;19922;-74
2023/07/20 02:42:31;;;;;;;;;;;17.10;99.90;;;;;;2067410;28;19949;-73
2023/07/20 02:43:31;;;;;;;;;;;17.20;99.90;;;;;;2077600;28;19921;-74
2023/07/20 02:44:32;;;;;;;;;;;17.20;99.90;;;;;;2079330;28;20509;-73
2023/07/20 02:45:32;;;;;;;;;;;17.10;99.90;;;;;;2087336;28;20373;-73
2023/07/20 02:46:34;;;;;;;;;;;17.10;99.90;;;;;;2075969;28;19914;-70
2023/07/20 02:47:34;;;;;;;;;;;17.10;99.90;;;;;;2074137;28;19940;-72
2023/07/20 02:48:35;;;;;;;;;;;17.10;99.90;;;;;;2075636;28;20367;-72
2023/07/20 02:49:36;;;;;;;;;;;17.10;99.90;;;;;;2075809;28;19913;-73
2023/07/20 02:50:36;;;;;;;;;;;17.10;99.90;;;;;;2076197;28;20016;-72
2023/07/20 02:51:37;;;;;;;;;;;17.10;99.90;;;;;;2075665;28;20386;-73
2023/07/20 02:52:37;;;;;;;;;;;17.10;99.90;;;;;;2075543;28;19917;-73
2023/07/20 02:53:38;;;;;;;;;;;17.10;99.90;;;;;;2075853;28;19936;-72
2023/07/20 02:54:38;;;;;;;;;;;17.10;99.90;;;;;;2078103;28;19952;-74
2023/07/20 02:55:39;;;;;;;;;;;17.10;99.90;;;;;;2075564;28;19948;-74
2023/07/20 02:56:40;;;;;;;;;;;17.10;99.90;;;;;;2055117;28;20369;-73
2023/07/20 02:57:40;;;;;;;;;;;17.10;99.90;;;;;;2072111;28;19952;-73
2023/07/20 02:58:45;;;;;;;;;;;17.10;99.90;;;;;;2075741;28;19953;-73
2023/07/20 02:59:46;;;;;;;;;;;17.10;99.90;;;;;;2075795;28;19984;-73
2023/07/20 03:00:46;;;;;;;;;;;17.10;99.90;;;;;;2067381;28;19937;-73
2023/07/20 03:01:47;;;;;;;;;;;17.10;99.90;;;;;;2075708;28;19917;-74
2023/07/20 03:02:48;;;;;;;;;;;17.10;99.90;;;;;;2077321;28;20441;-73
2023/07/20 03:03:49;;;;;;;;;;;17.10;99.90;;;;;;2075755;28;20510;-74
2023/07/20 03:04:50;;;;;;;;;;;17.10;99.90;;;;;;2087037;28;19912;-74
2023/07/20 03:05:54;;;;;;;;;;;17.10;99.90;;;;;;2078624;28;19920;-72
2023/07/20 03:06:54;;;;;;;;;;;17.10;99.90;;;;;;2082245;28;20526;-72
2023/07/20 03:07:55;;;;;;;;;;;17.00;99.90;;;;;;2088442;28;19916;-73
2023/07/20 03:08:56;;;;;;;;;;;17.00;99.90;;;;;;2069258;28;19917;-73
2023/07/20 03:09:57;;;;;;;;;;;17.00;99.90;;;;;;2069976;28;20497;-74
2023/07/20 03:10:57;;;;;;;;;;;17.00;99.90;;;;;;2065013;28;19960;-73
2023/07/20 03:11:58;;;;;;;;;;;17.00;99.90;;;;;;2067681;28;19921;-74
2023/07/20 03:12:58;;;;;;;;;;;17.00;99.90;;;;;;2080157;28;19917;-72
2023/07/20 03:13:59;;;;;;;;;;;17.00;99.90;;;;;;2080804;28;20369;-73
2023/07/20 03:15:00;;;;;;;;;;;17.00;99.90;;;;;;2067560;28;19960;-73
2023/07/20 03:16:00;;;;;;;;;;;17.00;99.90;;;;;;2068973;28;19921;-75
2023/07/20 03:17:03;;;;;;;;;;;17.00;99.90;;;;;;2078799;28;19920;-74
2023/07/20 03:18:04;;;;;;;;;;;17.00;99.90;;;;;;2077661;28;19917;-74
2023/07/20 03:19:05;;;;;;;;;;;16.90;99.90;;;;;;2075711;28;19917;-74
2023/07/20 03:20:09;;;;;;;;;;;16.90;99.90;;;;;;2075462;28;19939;-73
2023/07/20 03:21:13;;;;;;;;;;;16.90;99.90;;;;;;2075756;28;20391;-75
2023/07/20 03:22:14;;;;;;;;;;;16.90;99.90;;;;;;2075547;28;20474;-71
2023/07/20 03:23:15;;;;;;;;;;;16.90;99.90;;;;;;2068940;28;19933;-73
2023/07/20 03:24:16;;;;;;;;;;;16.90;99.90;;;;;;2072003;28;19968;-75
2023/07/20 03:25:17;;;;;;;;;;;17.00;99.90;;;;;;2075642;28;19949;-73
2023/07/20 03:26:17;;;;;;;;;;;16.90;99.90;;;;;;2077530;28;19917;-73
2023/07/20 03:27:18;;;;;;;;;;;17.00;99.90;;;;;;2075556;28;19932;-74
2023/07/20 03:28:18;;;;;;;;;;;17.00;99.90;;;;;;2075494;28;20483;-74
2023/07/20 03:29:19;;;;;;;;;;;17.00;99.90;;;;;;2081102;28;19925;-73
2023/07/20 03:30:21;;;;;;;;;;;17.00;99.90;;;;;;2077246;28;19921;-74
2023/07/20 03:31:22;;;;;;;;;;;17.00;99.90;;;;;;2062262;28;19937;-73
2023/07/20 03:32:23;;;;;;;;;;;17.00;99.90;;;;;;2059382;28;19917;-74
2023/07/20 03:33:25;;;;;;;;;;;17.00;99.90;;;;;;2067387;28;19917;-74
2023/07/20 03:34:26;;;;;;;;;;;17.00;99.90;;;;;;2067736;28;20008;-75
2023/07/20 03:35:27;;;;;;;;;;;17.00;99.90;;;;;;2073851;28;19982;-73
2023/07/20 03:36:27;;;;;;;;;;;17.00;99.90;;;;;;2075619;28;20011;-73
2023/07/20 03:37:28;;;;;;;;;;;17.00;99.90;;;;;;2075642;28;19928;-73
2023/07/20 03:38:28;;;;;;;;;;;17.00;99.90;;;;;;2073682;28;20045;-73
2023/07/20 03:39:29;;;;;;;;;;;17.10;99.90;;;;;;2075815;28;19917;-73
2023/07/20 03:40:29;;;;;;;;;;;17.10;99.90;;;;;;2076468;28;19973;-73
2023/07/20 03:41:30;;;;;;;;;;;17.10;99.90;;;;;;2076401;28;20418;-74
2023/07/20 03:42:30;;;;;;;;;;;17.10;99.90;;;;;;2075425;28;19913;-73
2023/07/20 03:43:31;;;;;;;;;;;17.10;99.90;;;;;;2069465;28;19961;-73
2023/07/20 03:44:32;;;;;;;;;;;17.10;99.90;;;;;;2075173;28;19920;-74
2023/07/20 03:45:32;;;;;;;;;;;17.10;99.90;;;;;;2076493;28;19920;-73
2023/07/20 03:46:33;;;;;;;;;;;17.10;99.90;;;;;;2077147;28;20384;-74
2023/07/20 03:47:34;;;;;;;;;;;17.20;99.90;;;;;;2067362;28;20040;-73
2023/07/20 03:48:35;;;;;;;;;;;17.20;99.90;;;;;;2075606;28;19956;-74
2023/07/20 03:49:35;;;;;;;;;;;17.20;99.90;;;;;;2075981;28;20289;-73
2023/07/20 03:50:36;;;;;;;;;;;17.20;99.90;;;;;;2075288;28;20006;-75
2023/07/20 03:51:36;;;;;;;;;;;17.20;99.90;;;;;;2073707;28;20284;-73
2023/07/20 03:52:37;;;;;;;;;;;17.30;99.90;;;;;;2067103;28;20011;-73
2023/07/20 03:53:38;;;;;;;;;;;17.20;99.90;;;;;;2067097;28;19934;-73
2023/07/20 03:54:39;;;;;;;;;;;17.30;99.90;;;;;;2067024;28;20550;-72
2023/07/20 03:55:42;;;;;;;;;;;17.30;99.90;;;;;;2077083;28;19917;-73
2023/07/20 03:56:43;;;;;;;;;;;17.30;99.90;;;;;;2075265;28;19960;-73
2023/07/20 03:57:43;;;;;;;;;;;17.30;99.90;;;;;;2070525;28;19917;-73
2023/07/20 03:58:44;;;;;;;;;;;17.30;99.90;;;;;;2074899;28;19917;-75
2023/07/20 03:59:45;;;;;;;;;;;17.30;99.90;;;;;;2067144;28;19924;-73
2023/07/20 04:00:46;;;;;;;;;;;17.40;99.90;;;;;;2071263;28;19918;-73
2023/07/20 04:01:46;;;;;;;;;;;17.40;99.90;;;;;;2064192;28;19953;-74
2023/07/20 04:02:47;;;;;;;;;;;17.40;99.90;;;;;;2074700;28;19917;-73
2023/07/20 04:03:48;;;;;;;;;;;17.40;99.90;;;;;;2076261;28;19909;-75
2023/07/20 04:04:48;;;;;;;;;;;17.40;99.90;;;;;;2076882;28;20230;-72
2023/07/20 04:05:49;;;;;;;;;;;17.40;99.90;;;;;;2075244;28;20412;-72
2023/07/20 04:06:50;;;;;;;;;;;17.40;99.90;;;;;;2078152;28;20173;-74
2023/07/20 04:07:51;;;;;;;;;;;17.40;99.90;;;;;;2077403;28;19921;-73
2023/07/20 04:08:51;;;;;;;;;;;17.40;99.90;;;;;;2074609;28;19978;-74
2023/07/20 04:09:52;;;;;;;;;;;17.40;99.90;;;;;;2070405;28;19939;-73
2023/07/20 04:10:52;;;;;;;;;;;17.40;99.90;;;;;;2075108;28;20419;-73
2023/07/20 04:11:53;;;;;;;;;;;17.50;99.90;;;;;;2075593;28;20178;-73
2023/07/20 04:12:53;;;;;;;;;;;17.50;99.90;;;;;;2068727;28;19921;-74
2023/07/20 04:13:56;;;;;;;;;;;17.40;99.90;;;;;;2066800;28;19964;-73
2023/07/20 04:14:56;;;;;;;;;;;17.50;99.90;;;;;;2067167;28;19917;-75
2023/07/20 04:15:57;;;;;;;;;;;17.50;99.90;;;;;;2075066;28;20317;-73
2023/07/20 04:16:57;;;;;;;;;;;17.60;99.90;;;;;;2074987;28;20315;-74
2023/07/20 04:17:58;;;;;;;;;;;17.60;99.90;;;;;;2079048;28;19996;-73
2023/07/20 04:18:58;;;;;;;;;;;17.70;99.90;;;;;;2080785;28;20407;-74
2023/07/20 04:19:59;;;;;;;;;;;17.80;99.90;;;;;;2074980;28;20004;-73
2023/07/20 04:21:00;;;;;;;;;;;17.90;99.90;;;;;;2073271;28;19917;-74
2023/07/20 04:22:00;;;;;;;;;;;17.90;99.90;;;;;;2066998;28;19917;-75
2023/07/20 04:23:01;;;;;;;;;;;18.00;99.90;;;;;;2077043;28;19917;-74
2023/07/20 04:24:02;;;;;;;;;;;18.00;99.90;;;;;;2064037;28;20307;-75
2023/07/20 04:25:03;;;;;;;;;;;18.10;99.90;;;;;;2075129;28;19913;-75
2023/07/20 04:26:03;;;;;;;;;;;18.10;99.90;;;;;;2075169;28;19913;-73
2023/07/20 04:27:04;;;;;;;;;;;18.10;99.90;;;;;;2077243;28;19973;-74
2023/07/20 04:28:08;;;;;;;;;;;18.10;99.90;;;;;;2075019;28;20471;-73
2023/07/20 04:29:09;;;;;;;;;;;18.10;99.90;;;;;;2067323;28;19945;-73
2023/07/20 04:30:15;;;;;;;;;;;18.20;99.90;;;;;;2075020;28;20432;-75
2023/07/20 04:31:16;;;;;;;;;;;18.10;99.90;;;;;;2074832;28;19921;-74
2023/07/20 04:32:17;;;;;;;;;;;18.10;99.90;;;;;;2068666;28;19924;-74
2023/07/20 04:33:18;;;;;;;;;;;18.10;99.90;;;;;;2074979;28;19917;-74
2023/07/20 04:34:20;;;;;;;;;;;18.10;99.90;;;;;;2086452;28;19963;-72
2023/07/20 04:35:39;;;;;;;;;;;18.10;99.90;;;;;;2078583;28;19912;-74
2023/07/20 04:36:42;;;;;;;;;;;18.00;99.90;;;;;;2076671;28;20300;-75
2023/07/20 04:37:46;;;;;;;;;;;18.00;99.90;;;;;;2069828;28;19968;-74
2023/07/20 04:38:49;;;;;;;;;;;18.00;99.90;;;;;;2072318;28;20331;-75
2023/07/20 04:39:54;;;;;;;;;;;18.00;99.90;;;;;;2074314;28;19924;-78
2023/07/20 04:40:54;;;;;;;;;;;17.90;99.90;;;;;;2078347;28;20303;-76
2023/07/20 04:41:55;;;;;;;;;;;17.90;99.90;;;;;;2081389;28;19917;-77
2023/07/20 04:42:55;;;;;;;;;;;17.90;99.90;;;;;;2072341;28;19913;-74
2023/07/20 04:43:56;;;;;;;;;;;17.90;99.90;;;;;;2078189;28;19912;-73
2023/07/20 04:45:03;;;;;;;;;;;17.90;99.90;;;;;;2079522;28;20380;-74
2023/07/20 04:46:04;;;;;;;;;;;17.90;99.90;;;;;;2076398;28;19948;-74
2023/07/20 04:47:08;;;;;;;;;;;17.90;99.90;;;;;;2072475;28;19921;-78
2023/07/20 04:48:12;;;;;;;;;;;17.90;99.90;;;;;;2077925;28;19913;-75
2023/07/20 04:49:15;;;;;;;;;;;18.00;99.90;;;;;;2077821;28;19917;-74
2023/07/20 04:50:17;;;;;;;;;;;18.00;99.90;;;;;;2078583;28;20395;-73
2023/07/20 04:51:20;;;;;;;;;;;18.00;99.90;;;;;;2086754;28;19960;-71
2023/07/20 04:52:22;;;;;;;;;;;18.00;99.90;;;;;;2078467;28;19913;-72
2023/07/20 04:53:23;;;;;;;;;;;18.00;99.90;;;;;;2062498;28;19973;-71
2023/07/20 04:54:24;;;;;;;;;;;18.00;99.90;;;;;;2072510;28;20015;-72
2023/07/20 04:55:25;;;;;;;;;;;18.00;99.90;;;;;;2071272;28;19917;-72
2023/07/20 04:56:26;;;;;;;;;;;18.00;99.90;;;;;;2058584;28;19910;-74
2023/07/20 04:57:29;;;;;;;;;;;18.00;99.90;;;;;;2060206;28;19914;-72
2023/07/20 04:58:29;;;;;;;;;;;18.00;99.90;;;;;;2069299;28;19959;-72
2023/07/20 04:59:32;;;;;;;;;;;18.10;99.90;;;;;;2066240;28;20382;-72
2023/07/20 05:00:33;;;;;;;;;;;18.00;99.90;;;;;;2063607;28;19921;-72
2023/07/20 05:01:33;;;;;;;;;;;18.00;99.90;;;;;;2072205;28;20373;-72
2023/07/20 05:02:34;;;;;;;;;;;18.00;99.90;;;;;;2074920;28;20009;-73
2023/07/20 05:03:35;;;;;;;;;;;18.00;99.90;;;;;;2074875;28;20420;-74
2023/07/20 05:04:36;;;;;;;;;;;18.10;99.90;;;;;;2068385;28;19956;-73
2023/07/20 05:05:36;;;;;;;;;;;18.20;99.90;;;;;;2074814;28;19921;-73
2023/07/20 05:06:38;;;;;;;;;;;18.20;99.90;;;;;;2074478;28;20391;-73
2023/07/20 05:07:40;;;;;;;;;;;18.30;99.90;;;;;;2069584;28;19917;-72
2023/07/20 05:08:41;;;;;;;;;;;18.60;99.90;;;;;;2068674;28;19921;-72
2023/07/20 05:09:41;;;;;;;;;;;18.90;99.90;;;;;;2068232;28;19959;-72
2023/07/20 05:10:43;;;;;;;;;;;19.10;99.90;;;;;;2063444;28;19926;-72
2023/07/20 05:11:45;;;;;;;;;;;19.40;99.90;;;;;;2065034;28;20439;-73
2023/07/20 05:12:45;;;;;;;;;;;19.70;99.90;;;;;;2074856;28;19919;-73
2023/07/20 05:13:46;;;;;;;;;;;19.80;99.90;;;;;;2074669;28;19928;-73
2023/07/20 05:14:46;;;;;;;;;;;19.90;99.90;;;;;;2068390;28;19960;-73
2023/07/20 05:15:50;;;;;;;;;;;20.00;99.90;;;;;;2077915;28;19920;-73
2023/07/20 05:16:52;;;;;;;;;;;19.90;99.90;;;;;;2077285;28;19955;-73
2023/07/20 05:17:52;;;;;;;;;;;19.90;99.90;;;;;;2066441;28;19913;-73
2023/07/20 05:18:54;;;;;;;;;;;19.80;99.90;;;;;;2076177;28;20011;-74
2023/07/20 05:19:54;;;;;;;;;;;19.70;99.90;;;;;;2071692;28;19971;-74
2023/07/20 05:20:55;;;;;;;;;;;19.50;99.90;;;;;;2074550;28;19917;-73
2023/07/20 05:21:55;;;;;;;;;;;19.40;99.90;;;;;;2074551;28;19924;-73
2023/07/20 05:22:56;;;;;;;;;;;19.30;99.90;;;;;;2075291;28;20442;-72
2023/07/20 05:23:56;;;;;;;;;;;19.20;99.90;;;;;;2076508;28;20415;-73
2023/07/20 05:24:57;;;;;;;;;;;19.10;99.90;;;;;;2074642;28;19921;-73
2023/07/20 05:25:58;;;;;;;;;;;19.00;99.90;;;;;;2074307;28;20511;-73
2023/07/20 05:26:59;;;;;;;;;;;19.00;99.90;;;;;;2074617;28;19960;-73
2023/07/20 05:27:59;;;;;;;;;;;19.00;99.90;;;;;;2075413;28;19924;-73
2023/07/20 05:29:00;;;;;;;;;;;18.90;99.90;;;;;;2074751;28;20403;-71
2023/07/20 05:30:00;;;;;;;;;;;18.90;99.90;;;;;;2076758;28;19924;-72
2023/07/20 05:31:06;;;;;;;;;;;18.80;99.90;;;;;;2075388;28;20426;-73
2023/07/20 05:32:07;;;;;;;;;;;18.90;99.90;;;;;;2075438;28;20315;-72
2023/07/20 05:33:07;;;;;;;;;;;18.90;99.90;;;;;;2075620;28;19967;-72
2023/07/20 05:34:07;;;;;;;;;;;18.90;99.90;;;;;;2076592;28;20431;-73
2023/07/20 05:35:08;;;;;;;;;;;18.90;99.90;;;;;;2074713;28;19952;-73
2023/07/20 05:36:09;;;;;;;;;;;18.90;99.90;;;;;;2074751;28;20376;-78
2023/07/20 05:37:10;;;;;;;;;;;18.90;99.90;;;;;;2074741;28;19983;-69
2023/07/20 05:38:10;;;;;;;;;;;18.90;99.90;;;;;;2076711;28;19917;-73
2023/07/20 05:39:11;;;;;;;;;;;19.00;99.90;;;;;;2075191;28;19914;-72
2023/07/20 05:40:12;;;;;;;;;;;19.00;99.90;;;;;;2074866;28;19913;-72
2023/07/20 05:41:12;;;;;;;;;;;19.00;99.90;;;;;;2074657;28;19920;-73
2023/07/20 05:42:13;;;;;;;;;;;19.00;99.90;;;;;;2076492;28;19913;-70
2023/07/20 05:43:14;;;;;;;;;;;19.00;99.90;;;;;;2075329;28;19917;-70
2023/07/20 05:44:14;;;;;;;;;;;18.90;99.90;;;;;;2075028;28;19940;-70
2023/07/20 05:45:15;;;;;;;;;;;18.80;99.90;;;;;;2075195;28;19918;-71
2023/07/20 05:46:15;;;;;;;;;;;18.60;99.90;;;;;;2074494;28;19919;-69
2023/07/20 05:47:16;;;;;;;;;;;18.50;99.90;;;;;;2068156;28;19917;-71
2023/07/20 05:48:16;;;;;;;;;;;18.40;99.90;;;;;;2074307;28;20206;-73
2023/07/20 05:49:17;;;;;;;;;;;18.30;99.90;;;;;;2075468;28;19917;-75
2023/07/20 05:50:17;;;;;;;;;;;18.30;99.90;;;;;;2075215;28;19975;-72
2023/07/20 05:51:18;;;;;;;;;;;18.40;99.90;;;;;;2076470;28;19925;-72
2023/07/20 05:52:19;;;;;;;;;;;18.30;99.90;;;;;;2078418;28;19957;-72
2023/07/20 05:53:19;;;;;;;;;;;18.30;99.90;;;;;;2086587;28;21003;-72
2023/07/20 05:54:20;;;;;;;;;;;18.40;99.90;;;;;;2075235;28;19921;-72
2023/07/20 05:55:20;;;;;;;;;;;18.40;99.90;;;;;;2075381;28;19928;-74
2023/07/20 05:56:21;;;;;;;;;;;18.50;99.90;;;;;;2077337;28;19924;-71
2023/07/20 05:57:21;;;;;;;;;;;18.50;99.90;;;;;;2075327;28;20399;-71